sensor_id;sensor_type;location;lat;lon;timestamp;P1;durP1;ratioP1;P2;durP2;ratioP2
24585;SDS011;12743;52.262;6.172;2023-04-03T00:00:44;3.33;;;0.55;;
24585;SDS011;12743;52.262;6.172;2023-04-03T00:03:11;3.25;;;0.50;;
24585;SDS011;12743;52.262;6.172;2023-04-03T00:05:37;3.72;;;0.43;;
24585;SDS011;12743;52.262;6.172;2023-04-03T00:08:04;2.90;;;0.40;;
24585;SDS011;12743;52.262;6.172;2023-04-03T00:10:33;2.75;;;0.38;;
24585;SDS011;12743;52.262;6.172;2023-04-03T00:13:01;3.08;;;0.50;;
24585;SDS011;12743;52.262;6.172;2023-04-03T00:15:28;3.28;;;0.30;;
24585;SDS011;12743;52.262;6.172;2023-04-03T00:17:55;3.25;;;0.50;;
24585;SDS011;12743;52.262;6.172;2023-04-03T00:20:22;4.03;;;0.50;;
24585;SDS011;12743;52.262;6.172;2023-04-03T00:22:49;3.92;;;0.40;;
24585;SDS011;12743;52.262;6.172;2023-04-03T00:25:15;2.83;;;0.50;;
24585;SDS011;12743;52.262;6.172;2023-04-03T00:27:42;5.05;;;0.98;;
24585;SDS011;12743;52.262;6.172;2023-04-03T00:30:09;3.70;;;0.47;;
24585;SDS011;12743;52.262;6.172;2023-04-03T00:32:39;3.50;;;0.40;;
24585;SDS011;12743;52.262;6.172;2023-04-03T00:35:05;3.20;;;0.40;;
24585;SDS011;12743;52.262;6.172;2023-04-03T00:37:32;2.40;;;0.63;;
24585;SDS011;12743;52.262;6.172;2023-04-03T00:39:59;2.83;;;0.60;;
24585;SDS011;12743;52.262;6.172;2023-04-03T00:42:26;3.88;;;0.82;;
24585;SDS011;12743;52.262;6.172;2023-04-03T00:47:23;2.50;;;0.30;;
24585;SDS011;12743;52.262;6.172;2023-04-03T00:49:51;3.53;;;0.50;;
24585;SDS011;12743;52.262;6.172;2023-04-03T00:52:19;3.17;;;0.80;;
24585;SDS011;12743;52.262;6.172;2023-04-03T00:54:50;3.13;;;0.32;;
24585;SDS011;12743;52.262;6.172;2023-04-03T00:57:21;3.33;;;0.47;;
24585;SDS011;12743;52.262;6.172;2023-04-03T00:59:49;3.30;;;0.30;;
24585;SDS011;12743;52.262;6.172;2023-04-03T01:02:19;3.78;;;0.50;;
24585;SDS011;12743;52.262;6.172;2023-04-03T01:04:46;3.45;;;0.40;;
24585;SDS011;12743;52.262;6.172;2023-04-03T01:07:17;3.47;;;0.60;;
24585;SDS011;12743;52.262;6.172;2023-04-03T01:09:48;3.97;;;0.50;;
24585;SDS011;12743;52.262;6.172;2023-04-03T01:14:49;4.78;;;0.60;;
24585;SDS011;12743;52.262;6.172;2023-04-03T01:17:27;5.03;;;0.73;;
24585;SDS011;12743;52.262;6.172;2023-04-03T01:28:17;4.15;;;0.50;;
24585;SDS011;12743;52.262;6.172;2023-04-03T01:30:56;3.42;;;0.65;;
24585;SDS011;12743;52.262;6.172;2023-04-03T01:33:31;2.55;;;0.60;;
24585;SDS011;12743;52.262;6.172;2023-04-03T01:35:58;4.07;;;0.70;;
24585;SDS011;12743;52.262;6.172;2023-04-03T01:38:26;3.30;;;0.70;;
24585;SDS011;12743;52.262;6.172;2023-04-03T01:40:53;4.32;;;0.63;;
24585;SDS011;12743;52.262;6.172;2023-04-03T01:43:19;3.50;;;0.65;;
24585;SDS011;12743;52.262;6.172;2023-04-03T01:45:46;2.85;;;0.55;;
24585;SDS011;12743;52.262;6.172;2023-04-03T01:48:13;3.77;;;0.60;;
24585;SDS011;12743;52.262;6.172;2023-04-03T01:50:39;3.25;;;0.50;;
24585;SDS011;12743;52.262;6.172;2023-04-03T01:53:06;3.85;;;0.77;;
24585;SDS011;12743;52.262;6.172;2023-04-03T01:55:33;2.20;;;0.30;;
24585;SDS011;12743;52.262;6.172;2023-04-03T01:58:00;5.97;;;0.93;;
24585;SDS011;12743;52.262;6.172;2023-04-03T02:00:26;2.23;;;0.50;;
24585;SDS011;12743;52.262;6.172;2023-04-03T02:02:53;4.47;;;0.70;;
24585;SDS011;12743;52.262;6.172;2023-04-03T02:05:20;4.72;;;0.50;;
24585;SDS011;12743;52.262;6.172;2023-04-03T02:07:46;6.25;;;1.02;;
24585;SDS011;12743;52.262;6.172;2023-04-03T02:10:13;3.30;;;0.50;;
24585;SDS011;12743;52.262;6.172;2023-04-03T02:12:40;4.70;;;0.53;;
24585;SDS011;12743;52.262;6.172;2023-04-03T02:15:07;3.30;;;0.50;;
24585;SDS011;12743;52.262;6.172;2023-04-03T02:17:34;2.38;;;0.35;;
24585;SDS011;12743;52.262;6.172;2023-04-03T02:20:01;2.97;;;0.52;;
24585;SDS011;12743;52.262;6.172;2023-04-03T02:22:29;4.47;;;0.40;;
24585;SDS011;12743;52.262;6.172;2023-04-03T02:24:56;4.07;;;0.80;;
24585;SDS011;12743;52.262;6.172;2023-04-03T02:27:23;4.43;;;0.50;;
24585;SDS011;12743;52.262;6.172;2023-04-03T02:29:49;4.55;;;0.88;;
24585;SDS011;12743;52.262;6.172;2023-04-03T02:32:16;3.72;;;0.50;;
24585;SDS011;12743;52.262;6.172;2023-04-03T02:34:43;4.50;;;0.77;;
24585;SDS011;12743;52.262;6.172;2023-04-03T02:37:11;3.57;;;0.40;;
24585;SDS011;12743;52.262;6.172;2023-04-03T02:39:38;4.35;;;0.70;;
24585;SDS011;12743;52.262;6.172;2023-04-03T02:42:05;4.38;;;0.80;;
24585;SDS011;12743;52.262;6.172;2023-04-03T02:44:32;5.00;;;0.90;;
24585;SDS011;12743;52.262;6.172;2023-04-03T02:46:59;6.03;;;1.00;;
24585;SDS011;12743;52.262;6.172;2023-04-03T02:49:25;5.50;;;0.70;;
24585;SDS011;12743;52.262;6.172;2023-04-03T02:51:52;3.15;;;0.60;;
24585;SDS011;12743;52.262;6.172;2023-04-03T02:54:18;7.40;;;1.17;;
24585;SDS011;12743;52.262;6.172;2023-04-03T02:56:50;5.22;;;0.80;;
24585;SDS011;12743;52.262;6.172;2023-04-03T02:59:18;6.00;;;0.60;;
24585;SDS011;12743;52.262;6.172;2023-04-03T03:01:45;3.67;;;0.70;;
24585;SDS011;12743;52.262;6.172;2023-04-03T03:04:12;5.18;;;0.70;;
24585;SDS011;12743;52.262;6.172;2023-04-03T03:06:38;5.50;;;0.88;;
24585;SDS011;12743;52.262;6.172;2023-04-03T03:09:08;5.43;;;0.50;;
24585;SDS011;12743;52.262;6.172;2023-04-03T03:11:34;4.53;;;0.60;;
24585;SDS011;12743;52.262;6.172;2023-04-03T03:14:01;7.17;;;0.60;;
24585;SDS011;12743;52.262;6.172;2023-04-03T03:16:28;6.53;;;0.57;;
24585;SDS011;12743;52.262;6.172;2023-04-03T03:18:55;6.30;;;0.70;;
24585;SDS011;12743;52.262;6.172;2023-04-03T03:21:23;3.67;;;0.50;;
24585;SDS011;12743;52.262;6.172;2023-04-03T03:23:50;3.20;;;0.73;;
24585;SDS011;12743;52.262;6.172;2023-04-03T03:26:16;2.73;;;0.50;;
24585;SDS011;12743;52.262;6.172;2023-04-03T03:28:43;4.80;;;0.88;;
24585;SDS011;12743;52.262;6.172;2023-04-03T03:31:10;5.05;;;0.77;;
24585;SDS011;12743;52.262;6.172;2023-04-03T03:33:39;3.13;;;0.50;;
24585;SDS011;12743;52.262;6.172;2023-04-03T03:36:06;6.90;;;0.80;;
24585;SDS011;12743;52.262;6.172;2023-04-03T03:38:35;3.43;;;0.67;;
24585;SDS011;12743;52.262;6.172;2023-04-03T03:41:01;4.85;;;0.50;;
24585;SDS011;12743;52.262;6.172;2023-04-03T03:43:31;5.50;;;0.50;;
24585;SDS011;12743;52.262;6.172;2023-04-03T03:45:58;3.08;;;0.82;;
24585;SDS011;12743;52.262;6.172;2023-04-03T03:48:25;5.55;;;1.00;;
24585;SDS011;12743;52.262;6.172;2023-04-03T03:50:52;4.40;;;0.57;;
24585;SDS011;12743;52.262;6.172;2023-04-03T03:53:22;3.70;;;0.60;;
24585;SDS011;12743;52.262;6.172;2023-04-03T03:55:52;5.90;;;1.15;;
24585;SDS011;12743;52.262;6.172;2023-04-03T03:58:21;6.07;;;0.60;;
24585;SDS011;12743;52.262;6.172;2023-04-03T04:00:48;3.03;;;0.60;;
24585;SDS011;12743;52.262;6.172;2023-04-03T04:03:15;4.40;;;0.67;;
24585;SDS011;12743;52.262;6.172;2023-04-03T04:05:44;4.13;;;0.70;;
24585;SDS011;12743;52.262;6.172;2023-04-03T04:08:12;6.18;;;0.70;;
24585;SDS011;12743;52.262;6.172;2023-04-03T04:10:38;3.13;;;0.68;;
24585;SDS011;12743;52.262;6.172;2023-04-03T04:13:06;8.82;;;1.50;;
24585;SDS011;12743;52.262;6.172;2023-04-03T04:15:33;4.40;;;0.73;;
24585;SDS011;12743;52.262;6.172;2023-04-03T04:18:00;4.53;;;0.70;;
24585;SDS011;12743;52.262;6.172;2023-04-03T04:20:27;5.32;;;0.70;;
24585;SDS011;12743;52.262;6.172;2023-04-03T04:22:54;4.75;;;0.50;;
24585;SDS011;12743;52.262;6.172;2023-04-03T04:25:21;5.88;;;0.82;;
24585;SDS011;12743;52.262;6.172;2023-04-03T04:27:48;5.87;;;0.80;;
24585;SDS011;12743;52.262;6.172;2023-04-03T04:30:15;6.45;;;0.70;;
24585;SDS011;12743;52.262;6.172;2023-04-03T04:32:44;5.70;;;0.60;;
24585;SDS011;12743;52.262;6.172;2023-04-03T04:35:12;4.45;;;0.80;;
24585;SDS011;12743;52.262;6.172;2023-04-03T04:37:45;4.28;;;0.52;;
24585;SDS011;12743;52.262;6.172;2023-04-03T04:40:12;6.43;;;1.10;;
24585;SDS011;12743;52.262;6.172;2023-04-03T04:42:39;5.47;;;0.70;;
24585;SDS011;12743;52.262;6.172;2023-04-03T04:45:06;6.13;;;0.70;;
24585;SDS011;12743;52.262;6.172;2023-04-03T04:47:35;5.63;;;0.70;;
24585;SDS011;12743;52.262;6.172;2023-04-03T04:50:02;3.65;;;0.63;;
24585;SDS011;12743;52.262;6.172;2023-04-03T04:52:30;4.00;;;0.97;;
24585;SDS011;12743;52.262;6.172;2023-04-03T04:54:57;5.90;;;0.82;;
24585;SDS011;12743;52.262;6.172;2023-04-03T04:57:23;3.17;;;0.77;;
24585;SDS011;12743;52.262;6.172;2023-04-03T04:59:50;5.45;;;1.13;;
24585;SDS011;12743;52.262;6.172;2023-04-03T05:02:17;3.88;;;1.08;;
24585;SDS011;12743;52.262;6.172;2023-04-03T05:04:44;6.13;;;1.07;;
24585;SDS011;12743;52.262;6.172;2023-04-03T05:07:17;5.88;;;0.90;;
24585;SDS011;12743;52.262;6.172;2023-04-03T05:09:44;6.32;;;0.90;;
24585;SDS011;12743;52.262;6.172;2023-04-03T05:12:12;6.70;;;1.10;;
24585;SDS011;12743;52.262;6.172;2023-04-03T05:14:45;6.72;;;1.40;;
24585;SDS011;12743;52.262;6.172;2023-04-03T05:17:12;4.70;;;1.10;;
24585;SDS011;12743;52.262;6.172;2023-04-03T05:19:43;6.95;;;1.02;;
24585;SDS011;12743;52.262;6.172;2023-04-03T05:22:11;4.53;;;1.20;;
24585;SDS011;12743;52.262;6.172;2023-04-03T05:24:38;4.18;;;0.95;;
24585;SDS011;12743;52.262;6.172;2023-04-03T05:27:05;6.88;;;1.40;;
24585;SDS011;12743;52.262;6.172;2023-04-03T05:29:36;5.43;;;0.80;;
24585;SDS011;12743;52.262;6.172;2023-04-03T05:32:04;5.22;;;1.17;;
24585;SDS011;12743;52.262;6.172;2023-04-03T05:34:31;3.33;;;0.98;;
24585;SDS011;12743;52.262;6.172;2023-04-03T05:36:58;4.57;;;0.98;;
24585;SDS011;12743;52.262;6.172;2023-04-03T05:39:26;3.58;;;0.80;;
24585;SDS011;12743;52.262;6.172;2023-04-03T05:41:53;4.17;;;0.70;;
24585;SDS011;12743;52.262;6.172;2023-04-03T05:44:21;4.32;;;1.10;;
24585;SDS011;12743;52.262;6.172;2023-04-03T05:46:49;6.65;;;1.10;;
24585;SDS011;12743;52.262;6.172;2023-04-03T05:49:16;4.30;;;0.98;;
24585;SDS011;12743;52.262;6.172;2023-04-03T05:51:42;6.30;;;1.00;;
24585;SDS011;12743;52.262;6.172;2023-04-03T05:54:37;5.23;;;0.73;;
24585;SDS011;12743;52.262;6.172;2023-04-03T05:57:15;4.15;;;0.82;;
24585;SDS011;12743;52.262;6.172;2023-04-03T05:59:42;6.03;;;0.90;;
24585;SDS011;12743;52.262;6.172;2023-04-03T06:02:10;6.03;;;1.20;;
24585;SDS011;12743;52.262;6.172;2023-04-03T06:04:38;3.42;;;0.73;;
24585;SDS011;12743;52.262;6.172;2023-04-03T06:07:05;5.80;;;0.97;;
24585;SDS011;12743;52.262;6.172;2023-04-03T06:09:33;4.72;;;0.93;;
24585;SDS011;12743;52.262;6.172;2023-04-03T06:12:00;7.07;;;1.15;;
24585;SDS011;12743;52.262;6.172;2023-04-03T06:14:28;5.32;;;0.82;;
24585;SDS011;12743;52.262;6.172;2023-04-03T06:16:55;5.90;;;1.38;;
24585;SDS011;12743;52.262;6.172;2023-04-03T06:19:22;8.07;;;1.13;;
24585;SDS011;12743;52.262;6.172;2023-04-03T06:21:53;6.40;;;0.85;;
24585;SDS011;12743;52.262;6.172;2023-04-03T06:24:20;5.97;;;0.75;;
24585;SDS011;12743;52.262;6.172;2023-04-03T06:26:49;5.07;;;1.00;;
24585;SDS011;12743;52.262;6.172;2023-04-03T06:29:17;3.58;;;0.65;;
24585;SDS011;12743;52.262;6.172;2023-04-03T06:31:44;5.53;;;1.00;;
24585;SDS011;12743;52.262;6.172;2023-04-03T06:34:11;7.22;;;0.90;;
24585;SDS011;12743;52.262;6.172;2023-04-03T06:36:39;6.85;;;0.80;;
24585;SDS011;12743;52.262;6.172;2023-04-03T06:39:06;5.53;;;0.80;;
24585;SDS011;12743;52.262;6.172;2023-04-03T06:41:33;4.13;;;0.70;;
24585;SDS011;12743;52.262;6.172;2023-04-03T06:44:02;7.07;;;1.27;;
24585;SDS011;12743;52.262;6.172;2023-04-03T06:46:29;5.28;;;0.60;;
24585;SDS011;12743;52.262;6.172;2023-04-03T06:48:56;3.38;;;0.68;;
24585;SDS011;12743;52.262;6.172;2023-04-03T06:51:27;4.68;;;0.80;;
24585;SDS011;12743;52.262;6.172;2023-04-03T06:53:56;5.80;;;0.82;;
24585;SDS011;12743;52.262;6.172;2023-04-03T06:56:24;2.87;;;0.60;;
24585;SDS011;12743;52.262;6.172;2023-04-03T06:58:52;5.20;;;0.77;;
24585;SDS011;12743;52.262;6.172;2023-04-03T07:01:27;5.90;;;0.77;;
24585;SDS011;12743;52.262;6.172;2023-04-03T07:03:56;4.63;;;0.52;;
24585;SDS011;12743;52.262;6.172;2023-04-03T07:06:23;3.22;;;0.88;;
24585;SDS011;12743;52.262;6.172;2023-04-03T07:08:53;5.23;;;0.60;;
24585;SDS011;12743;52.262;6.172;2023-04-03T07:11:20;5.32;;;0.73;;
24585;SDS011;12743;52.262;6.172;2023-04-03T07:13:47;6.68;;;0.82;;
24585;SDS011;12743;52.262;6.172;2023-04-03T07:16:13;4.90;;;0.50;;
24585;SDS011;12743;52.262;6.172;2023-04-03T07:18:40;2.67;;;0.57;;
24585;SDS011;12743;52.262;6.172;2023-04-03T07:21:07;3.40;;;0.40;;
24585;SDS011;12743;52.262;6.172;2023-04-03T07:23:34;4.93;;;0.70;;
24585;SDS011;12743;52.262;6.172;2023-04-03T07:26:01;3.88;;;0.40;;
24585;SDS011;12743;52.262;6.172;2023-04-03T07:28:28;3.97;;;0.55;;
24585;SDS011;12743;52.262;6.172;2023-04-03T07:31:00;3.70;;;0.50;;
24585;SDS011;12743;52.262;6.172;2023-04-03T07:33:28;4.67;;;0.60;;
24585;SDS011;12743;52.262;6.172;2023-04-03T07:35:55;2.67;;;0.47;;
24585;SDS011;12743;52.262;6.172;2023-04-03T07:38:23;4.82;;;0.57;;
24585;SDS011;12743;52.262;6.172;2023-04-03T07:40:49;2.42;;;0.35;;
24585;SDS011;12743;52.262;6.172;2023-04-03T07:43:17;3.22;;;0.47;;
24585;SDS011;12743;52.262;6.172;2023-04-03T07:45:45;4.97;;;0.30;;
24585;SDS011;12743;52.262;6.172;2023-04-03T07:48:13;2.10;;;0.30;;
24585;SDS011;12743;52.262;6.172;2023-04-03T07:50:40;3.67;;;0.30;;
24585;SDS011;12743;52.262;6.172;2023-04-03T07:53:07;4.22;;;0.40;;
24585;SDS011;12743;52.262;6.172;2023-04-03T07:55:34;4.57;;;0.52;;
24585;SDS011;12743;52.262;6.172;2023-04-03T07:58:03;2.17;;;0.30;;
24585;SDS011;12743;52.262;6.172;2023-04-03T08:00:30;3.30;;;0.35;;
24585;SDS011;12743;52.262;6.172;2023-04-03T08:02:57;2.90;;;0.40;;
24585;SDS011;12743;52.262;6.172;2023-04-03T08:05:24;5.65;;;0.50;;
24585;SDS011;12743;52.262;6.172;2023-04-03T08:07:51;5.13;;;0.30;;
24585;SDS011;12743;52.262;6.172;2023-04-03T08:10:18;4.73;;;0.53;;
24585;SDS011;12743;52.262;6.172;2023-04-03T08:12:47;3.92;;;0.30;;
24585;SDS011;12743;52.262;6.172;2023-04-03T08:15:14;2.00;;;0.20;;
24585;SDS011;12743;52.262;6.172;2023-04-03T08:17:42;2.75;;;0.30;;
24585;SDS011;12743;52.262;6.172;2023-04-03T08:20:09;3.63;;;0.25;;
24585;SDS011;12743;52.262;6.172;2023-04-03T08:22:36;3.63;;;0.80;;
24585;SDS011;12743;52.262;6.172;2023-04-03T08:25:02;1.98;;;0.30;;
24585;SDS011;12743;52.262;6.172;2023-04-03T08:27:29;2.90;;;0.35;;
24585;SDS011;12743;52.262;6.172;2023-04-03T08:29:56;4.13;;;0.30;;
24585;SDS011;12743;52.262;6.172;2023-04-03T08:32:23;3.40;;;0.40;;
24585;SDS011;12743;52.262;6.172;2023-04-03T08:34:50;3.40;;;0.50;;
24585;SDS011;12743;52.262;6.172;2023-04-03T08:37:17;4.18;;;0.20;;
24585;SDS011;12743;52.262;6.172;2023-04-03T08:39:43;4.18;;;0.30;;
24585;SDS011;12743;52.262;6.172;2023-04-03T08:42:15;2.75;;;0.20;;
24585;SDS011;12743;52.262;6.172;2023-04-03T08:44:55;2.67;;;0.20;;
24585;SDS011;12743;52.262;6.172;2023-04-03T08:47:28;1.67;;;0.20;;
24585;SDS011;12743;52.262;6.172;2023-04-03T08:50:01;10.60;;;0.50;;
24585;SDS011;12743;52.262;6.172;2023-04-03T08:52:44;2.17;;;0.30;;
24585;SDS011;12743;52.262;6.172;2023-04-03T09:01:00;2.03;;;0.20;;
24585;SDS011;12743;52.262;6.172;2023-04-03T09:03:34;2.15;;;0.20;;
24585;SDS011;12743;52.262;6.172;2023-04-03T09:06:11;2.25;;;0.20;;
24585;SDS011;12743;52.262;6.172;2023-04-03T09:11:56;1.63;;;0.20;;
24585;SDS011;12743;52.262;6.172;2023-04-03T09:17:34;2.20;;;0.30;;
24585;SDS011;12743;52.262;6.172;2023-04-03T09:20:14;2.47;;;0.10;;
24585;SDS011;12743;52.262;6.172;2023-04-03T09:23:03;3.42;;;0.20;;
24585;SDS011;12743;52.262;6.172;2023-04-03T09:25:41;2.50;;;0.10;;
24585;SDS011;12743;52.262;6.172;2023-04-03T09:28:08;1.40;;;0.10;;
24585;SDS011;12743;52.262;6.172;2023-04-03T09:30:36;4.30;;;0.20;;
24585;SDS011;12743;52.262;6.172;2023-04-03T09:33:04;2.47;;;0.22;;
24585;SDS011;12743;52.262;6.172;2023-04-03T09:35:33;1.15;;;0.20;;
24585;SDS011;12743;52.262;6.172;2023-04-03T09:38:20;2.85;;;0.10;;
24585;SDS011;12743;52.262;6.172;2023-04-03T09:40:49;1.50;;;0.20;;
24585;SDS011;12743;52.262;6.172;2023-04-03T09:43:29;2.55;;;0.13;;
24585;SDS011;12743;52.262;6.172;2023-04-03T09:49:04;1.42;;;0.20;;
24585;SDS011;12743;52.262;6.172;2023-04-03T09:51:35;1.25;;;0.20;;
24585;SDS011;12743;52.262;6.172;2023-04-03T09:54:23;2.20;;;0.20;;
24585;SDS011;12743;52.262;6.172;2023-04-03T09:56:57;0.63;;;0.10;;
24585;SDS011;12743;52.262;6.172;2023-04-03T09:59:32;1.60;;;0.20;;
24585;SDS011;12743;52.262;6.172;2023-04-03T10:02:00;1.25;;;0.10;;
24585;SDS011;12743;52.262;6.172;2023-04-03T10:04:37;2.10;;;0.40;;
24585;SDS011;12743;52.262;6.172;2023-04-03T10:07:25;1.23;;;0.13;;
24585;SDS011;12743;52.262;6.172;2023-04-03T10:09:55;3.40;;;0.10;;
24585;SDS011;12743;52.262;6.172;2023-04-03T10:12:26;3.00;;;0.40;;
24585;SDS011;12743;52.262;6.172;2023-04-03T10:17:25;1.67;;;0.20;;
24585;SDS011;12743;52.262;6.172;2023-04-03T10:25:48;2.30;;;0.10;;
24585;SDS011;12743;52.262;6.172;2023-04-03T10:34:05;2.27;;;0.40;;
24585;SDS011;12743;52.262;6.172;2023-04-03T10:40:11;3.05;;;0.20;;
24585;SDS011;12743;52.262;6.172;2023-04-03T10:50:49;1.65;;;0.20;;
24585;SDS011;12743;52.262;6.172;2023-04-03T10:56:25;2.35;;;0.10;;
24585;SDS011;12743;52.262;6.172;2023-04-03T10:59:45;2.45;;;0.20;;
24585;SDS011;12743;52.262;6.172;2023-04-03T11:01:56;1.60;;;0.20;;
24585;SDS011;12743;52.262;6.172;2023-04-03T11:04:26;1.95;;;0.20;;
24585;SDS011;12743;52.262;6.172;2023-04-03T11:06:57;1.45;;;0.20;;
24585;SDS011;12743;52.262;6.172;2023-04-03T11:09:30;2.83;;;0.57;;
24585;SDS011;12743;52.262;6.172;2023-04-03T11:12:04;2.30;;;0.28;;
24585;SDS011;12743;52.262;6.172;2023-04-03T11:14:44;2.00;;;0.20;;
24585;SDS011;12743;52.262;6.172;2023-04-03T11:22:39;2.40;;;0.25;;
24585;SDS011;12743;52.262;6.172;2023-04-03T11:27:42;2.10;;;0.30;;
24585;SDS011;12743;52.262;6.172;2023-04-03T11:30:36;2.92;;;0.30;;
24585;SDS011;12743;52.262;6.172;2023-04-03T11:38:56;2.30;;;0.20;;
24585;SDS011;12743;52.262;6.172;2023-04-03T11:41:26;1.27;;;0.10;;
24585;SDS011;12743;52.262;6.172;2023-04-03T11:46:48;1.58;;;0.30;;
24585;SDS011;12743;52.262;6.172;2023-04-03T11:57:50;1.75;;;0.30;;
24585;SDS011;12743;52.262;6.172;2023-04-03T12:13:36;2.42;;;0.30;;
24585;SDS011;12743;52.262;6.172;2023-04-03T12:16:06;4.32;;;0.47;;
24585;SDS011;12743;52.262;6.172;2023-04-03T12:21:16;2.43;;;0.40;;
24585;SDS011;12743;52.262;6.172;2023-04-03T12:24:01;2.58;;;0.20;;
24585;SDS011;12743;52.262;6.172;2023-04-03T12:31:43;2.92;;;0.20;;
24585;SDS011;12743;52.262;6.172;2023-04-03T12:37:01;2.13;;;0.50;;
24585;SDS011;12743;52.262;6.172;2023-04-03T12:39:41;2.13;;;0.30;;
24585;SDS011;12743;52.262;6.172;2023-04-03T12:45:20;3.88;;;0.40;;
24585;SDS011;12743;52.262;6.172;2023-04-03T12:47:49;2.30;;;0.30;;
24585;SDS011;12743;52.262;6.172;2023-04-03T12:50:28;3.22;;;0.38;;
24585;SDS011;12743;52.262;6.172;2023-04-03T12:53:05;2.42;;;0.40;;
24585;SDS011;12743;52.262;6.172;2023-04-03T12:55:37;3.28;;;0.50;;
24585;SDS011;12743;52.262;6.172;2023-04-03T12:58:21;7.88;;;0.40;;
24585;SDS011;12743;52.262;6.172;2023-04-03T13:01:08;3.57;;;0.50;;
24585;SDS011;12743;52.262;6.172;2023-04-03T13:03:39;3.85;;;0.30;;
24585;SDS011;12743;52.262;6.172;2023-04-03T13:06:19;2.33;;;0.40;;
24585;SDS011;12743;52.262;6.172;2023-04-03T13:08:50;4.10;;;0.75;;
24585;SDS011;12743;52.262;6.172;2023-04-03T13:11:23;3.83;;;0.43;;
24585;SDS011;12743;52.262;6.172;2023-04-03T13:14:01;2.40;;;0.30;;
24585;SDS011;12743;52.262;6.172;2023-04-03T13:16:40;2.15;;;0.38;;
24585;SDS011;12743;52.262;6.172;2023-04-03T13:19:15;4.50;;;0.60;;
24585;SDS011;12743;52.262;6.172;2023-04-03T13:21:43;3.33;;;0.60;;
24585;SDS011;12743;52.262;6.172;2023-04-03T13:24:11;4.30;;;0.50;;
24585;SDS011;12743;52.262;6.172;2023-04-03T13:26:41;5.20;;;0.63;;
24585;SDS011;12743;52.262;6.172;2023-04-03T13:29:18;4.43;;;0.40;;
24585;SDS011;12743;52.262;6.172;2023-04-03T13:31:56;3.97;;;0.50;;
24585;SDS011;12743;52.262;6.172;2023-04-03T13:34:25;2.55;;;0.50;;
24585;SDS011;12743;52.262;6.172;2023-04-03T13:37:02;3.47;;;0.60;;
24585;SDS011;12743;52.262;6.172;2023-04-03T13:39:34;3.90;;;0.40;;
24585;SDS011;12743;52.262;6.172;2023-04-03T13:45:33;3.45;;;0.52;;
24585;SDS011;12743;52.262;6.172;2023-04-03T13:50:58;3.00;;;0.70;;
24585;SDS011;12743;52.262;6.172;2023-04-03T13:53:27;2.27;;;0.50;;
24585;SDS011;12743;52.262;6.172;2023-04-03T13:55:57;2.63;;;0.30;;
24585;SDS011;12743;52.262;6.172;2023-04-03T13:58:30;2.92;;;0.45;;
24585;SDS011;12743;52.262;6.172;2023-04-03T14:01:14;2.80;;;0.40;;
24585;SDS011;12743;52.262;6.172;2023-04-03T14:03:54;4.63;;;0.43;;
24585;SDS011;12743;52.262;6.172;2023-04-03T14:06:23;4.10;;;0.43;;
24585;SDS011;12743;52.262;6.172;2023-04-03T14:08:50;2.47;;;0.30;;
24585;SDS011;12743;52.262;6.172;2023-04-03T14:11:24;4.05;;;0.47;;
24585;SDS011;12743;52.262;6.172;2023-04-03T14:13:55;2.78;;;0.40;;
24585;SDS011;12743;52.262;6.172;2023-04-03T14:16:27;2.38;;;0.40;;
24585;SDS011;12743;52.262;6.172;2023-04-03T14:18:56;3.40;;;0.30;;
24585;SDS011;12743;52.262;6.172;2023-04-03T14:21:23;5.60;;;0.52;;
24585;SDS011;12743;52.262;6.172;2023-04-03T14:23:50;3.42;;;0.40;;
24585;SDS011;12743;52.262;6.172;2023-04-03T14:26:18;4.00;;;0.40;;
24585;SDS011;12743;52.262;6.172;2023-04-03T14:28:48;3.65;;;0.30;;
24585;SDS011;12743;52.262;6.172;2023-04-03T14:31:16;3.90;;;0.50;;
24585;SDS011;12743;52.262;6.172;2023-04-03T14:33:44;4.38;;;0.40;;
24585;SDS011;12743;52.262;6.172;2023-04-03T14:36:12;2.72;;;0.50;;
24585;SDS011;12743;52.262;6.172;2023-04-03T14:38:39;3.47;;;0.50;;
24585;SDS011;12743;52.262;6.172;2023-04-03T14:41:07;3.33;;;0.50;;
24585;SDS011;12743;52.262;6.172;2023-04-03T14:43:42;2.43;;;0.60;;
24585;SDS011;12743;52.262;6.172;2023-04-03T14:46:32;5.93;;;0.50;;
24585;SDS011;12743;52.262;6.172;2023-04-03T14:49:22;3.42;;;0.52;;
24585;SDS011;12743;52.262;6.172;2023-04-03T14:51:52;2.72;;;0.50;;
24585;SDS011;12743;52.262;6.172;2023-04-03T14:54:20;3.25;;;0.50;;
24585;SDS011;12743;52.262;6.172;2023-04-03T14:56:51;7.83;;;0.60;;
24585;SDS011;12743;52.262;6.172;2023-04-03T14:59:18;3.30;;;0.50;;
24585;SDS011;12743;52.262;6.172;2023-04-03T15:01:47;1.80;;;0.40;;
24585;SDS011;12743;52.262;6.172;2023-04-03T15:04:15;4.15;;;0.40;;
24585;SDS011;12743;52.262;6.172;2023-04-03T15:06:44;2.60;;;0.30;;
24585;SDS011;12743;52.262;6.172;2023-04-03T15:09:18;4.67;;;0.50;;
24585;SDS011;12743;52.262;6.172;2023-04-03T15:11:45;3.92;;;0.47;;
24585;SDS011;12743;52.262;6.172;2023-04-03T15:14:12;3.05;;;0.40;;
24585;SDS011;12743;52.262;6.172;2023-04-03T15:16:44;3.75;;;0.50;;
24585;SDS011;12743;52.262;6.172;2023-04-03T15:19:11;2.75;;;0.50;;
24585;SDS011;12743;52.262;6.172;2023-04-03T15:21:38;3.37;;;0.50;;
24585;SDS011;12743;52.262;6.172;2023-04-03T15:24:05;3.05;;;0.30;;
24585;SDS011;12743;52.262;6.172;2023-04-03T15:26:32;3.70;;;0.30;;
24585;SDS011;12743;52.262;6.172;2023-04-03T15:28:59;2.40;;;0.40;;
24585;SDS011;12743;52.262;6.172;2023-04-03T15:31:25;2.38;;;0.40;;
24585;SDS011;12743;52.262;6.172;2023-04-03T15:33:52;2.50;;;0.43;;
24585;SDS011;12743;52.262;6.172;2023-04-03T15:36:18;4.55;;;0.50;;
24585;SDS011;12743;52.262;6.172;2023-04-03T15:38:59;2.40;;;0.30;;
24585;SDS011;12743;52.262;6.172;2023-04-03T15:41:26;3.55;;;0.50;;
24585;SDS011;12743;52.262;6.172;2023-04-03T15:43:53;3.30;;;0.45;;
24585;SDS011;12743;52.262;6.172;2023-04-03T15:46:19;3.50;;;0.40;;
24585;SDS011;12743;52.262;6.172;2023-04-03T15:48:46;3.72;;;0.30;;
24585;SDS011;12743;52.262;6.172;2023-04-03T15:51:12;1.50;;;0.22;;
24585;SDS011;12743;52.262;6.172;2023-04-03T15:53:39;3.92;;;0.57;;
24585;SDS011;12743;52.262;6.172;2023-04-03T15:56:05;3.90;;;0.47;;
24585;SDS011;12743;52.262;6.172;2023-04-03T15:58:34;3.07;;;0.40;;
24585;SDS011;12743;52.262;6.172;2023-04-03T16:01:01;1.73;;;0.30;;
24585;SDS011;12743;52.262;6.172;2023-04-03T16:03:28;2.80;;;0.30;;
24585;SDS011;12743;52.262;6.172;2023-04-03T16:05:54;3.67;;;0.40;;
24585;SDS011;12743;52.262;6.172;2023-04-03T16:08:22;3.42;;;0.30;;
24585;SDS011;12743;52.262;6.172;2023-04-03T16:10:48;1.83;;;0.30;;
24585;SDS011;12743;52.262;6.172;2023-04-03T16:13:15;3.85;;;0.40;;
24585;SDS011;12743;52.262;6.172;2023-04-03T16:15:41;4.15;;;0.50;;
24585;SDS011;12743;52.262;6.172;2023-04-03T16:18:09;2.53;;;0.43;;
24585;SDS011;12743;52.262;6.172;2023-04-03T16:20:36;3.67;;;0.57;;
24585;SDS011;12743;52.262;6.172;2023-04-03T16:23:03;2.90;;;0.50;;
24585;SDS011;12743;52.262;6.172;2023-04-03T16:25:30;3.35;;;0.38;;
24585;SDS011;12743;52.262;6.172;2023-04-03T16:27:57;2.92;;;0.40;;
24585;SDS011;12743;52.262;6.172;2023-04-03T16:30:23;4.65;;;0.68;;
24585;SDS011;12743;52.262;6.172;2023-04-03T16:32:50;4.70;;;0.60;;
24585;SDS011;12743;52.262;6.172;2023-04-03T16:35:17;2.90;;;0.60;;
24585;SDS011;12743;52.262;6.172;2023-04-03T16:37:44;4.43;;;0.60;;
24585;SDS011;12743;52.262;6.172;2023-04-03T16:40:10;4.60;;;0.63;;
24585;SDS011;12743;52.262;6.172;2023-04-03T16:42:38;3.38;;;0.47;;
24585;SDS011;12743;52.262;6.172;2023-04-03T16:45:05;3.17;;;0.40;;
24585;SDS011;12743;52.262;6.172;2023-04-03T16:47:33;2.23;;;0.30;;
24585;SDS011;12743;52.262;6.172;2023-04-03T16:49:59;2.10;;;0.30;;
24585;SDS011;12743;52.262;6.172;2023-04-03T16:52:26;3.30;;;0.32;;
24585;SDS011;12743;52.262;6.172;2023-04-03T16:54:53;3.10;;;0.30;;
24585;SDS011;12743;52.262;6.172;2023-04-03T16:57:22;1.42;;;0.30;;